Time;durP1;ratioP1;P1;durP2;ratioP2;P2;SDS_P1;SDS_P2;PMS_P1;PMS_P2;Temp;Humidity;BMP_temperature;BMP_pressure;BME280_temperature;BME280_humidity;BME280_pressure;Samples;Min_cycle;Max_cycle;Signal;HPM_P1;HPM_P2
2022/06/24 00:00:48;;;;;;;16.65;4.07;;;27.40;94.80;;;;;;5063144;28;20055;-58
2022/06/24 00:03:18;;;;;;;17.80;3.83;;;27.50;94.60;;;;;;5062573;28;20025;-59
2022/06/24 00:05:47;;;;;;;16.42;3.85;;;27.50;94.50;;;;;;5062680;28;20084;-55
2022/06/24 00:08:15;;;;;;;16.90;3.80;;;27.50;94.50;;;;;;5056182;28;20025;-58
2022/06/24 00:10:43;;;;;;;10.10;2.95;;;27.40;94.60;;;;;;5062763;28;20055;-58
2022/06/24 00:13:09;;;;;;;13.27;2.88;;;27.40;94.60;;;;;;5063087;28;20320;-59
2022/06/24 00:15:37;;;;;;;12.45;3.30;;;27.40;94.60;;;;;;5062696;28;20032;-60
2022/06/24 00:18:20;;;;;;;10.95;3.40;;;27.50;94.80;;;;;;5063282;28;20021;-62
2022/06/24 00:20:48;;;;;;;13.05;5.57;;;27.40;94.70;;;;;;5063325;28;20020;-61
2022/06/24 00:23:22;;;;;;;11.50;4.35;;;27.40;94.60;;;;;;5063438;28;20089;-61
2022/06/24 00:25:50;;;;;;;8.48;3.08;;;27.40;94.70;;;;;;5063254;28;20314;-60
2022/06/24 00:28:17;;;;;;;6.85;3.45;;;27.40;94.70;;;;;;5066473;28;20024;-59
2022/06/24 00:30:50;;;;;;;9.13;3.00;;;27.40;94.60;;;;;;5055567;28;20056;-58
2022/06/24 00:33:25;;;;;;;9.73;3.30;;;27.40;94.60;;;;;;5066397;28;20017;-60
2022/06/24 00:35:56;;;;;;;9.90;3.13;;;27.40;94.50;;;;;;5063947;28;20033;-61
2022/06/24 00:38:37;;;;;;;10.43;3.70;;;27.40;94.50;;;;;;5066053;28;20016;-59
2022/06/24 00:41:13;;;;;;;11.38;3.13;;;27.40;94.60;;;;;;5066263;28;20208;-58
2022/06/24 00:43:40;;;;;;;7.88;2.78;;;27.40;94.50;;;;;;5066207;28;20352;-61
2022/06/24 00:46:27;;;;;;;7.47;3.35;;;27.40;94.60;;;;;;5063556;28;20039;-59
2022/06/24 00:48:58;;;;;;;8.73;4.55;;;27.40;94.60;;;;;;5063586;28;20017;-62
2022/06/24 00:51:33;;;;;;;13.73;6.28;;;27.30;94.60;;;;;;5060163;28;20317;-59
2022/06/24 00:54:08;;;;;;;14.55;5.15;;;27.30;94.60;;;;;;5057399;28;20088;-57
2022/06/24 00:56:35;;;;;;;16.55;5.28;;;27.30;94.60;;;;;;5098611;28;20032;-60
2022/06/24 00:59:05;;;;;;;11.27;5.20;;;27.30;94.70;;;;;;5061684;28;20170;-60
2022/06/24 01:01:40;;;;;;;13.82;5.43;;;27.30;94.80;;;;;;5065668;28;20202;-60
2022/06/24 01:04:08;;;;;;;14.15;5.88;;;27.30;94.80;;;;;;5066652;28;20358;-61
2022/06/24 01:06:37;;;;;;;14.07;6.50;;;27.30;94.80;;;;;;5066231;28;20029;-62
2022/06/24 01:09:04;;;;;;;10.57;5.85;;;27.30;94.90;;;;;;5066513;28;20027;-61
2022/06/24 01:11:43;;;;;;;11.70;5.07;;;27.30;94.80;;;;;;5066355;28;20025;-60
2022/06/24 01:14:10;;;;;;;11.15;4.05;;;27.30;94.80;;;;;;5066269;28;20301;-63
2022/06/24 01:16:37;;;;;;;10.63;3.78;;;27.20;94.80;;;;;;5066339;28;20025;-62
2022/06/24 01:19:10;;;;;;;11.73;5.28;;;27.20;94.90;;;;;;5066284;28;20318;-61
2022/06/24 01:21:43;;;;;;;10.40;4.32;;;27.20;94.90;;;;;;5066226;28;20029;-61
2022/06/24 01:24:18;;;;;;;9.98;4.05;;;27.20;95.00;;;;;;5066425;28;20017;-62
2022/06/24 01:26:47;;;;;;;13.82;4.63;;;27.20;95.00;;;;;;5066031;28;20098;-61
2022/06/24 01:29:15;;;;;;;13.60;4.60;;;27.20;95.00;;;;;;5065852;28;20308;-61
2022/06/24 01:31:48;;;;;;;12.02;4.63;;;27.20;95.00;;;;;;5065988;28;20033;-59
2022/06/24 01:34:19;;;;;;;10.75;5.07;;;27.20;94.90;;;;;;5065978;28;20036;-59
2022/06/24 01:36:46;;;;;;;16.95;6.05;;;27.10;95.00;;;;;;5065738;28;20178;-59
2022/06/24 01:39:13;;;;;;;10.30;5.78;;;27.10;95.10;;;;;;5065794;28;20032;-64
2022/06/24 01:41:40;;;;;;;12.30;6.20;;;27.10;95.00;;;;;;5065373;28;20024;-63
2022/06/24 01:44:07;;;;;;;15.55;6.50;;;27.10;94.90;;;;;;5065381;28;20098;-56
2022/06/24 01:46:33;;;;;;;17.38;8.02;;;27.10;94.90;;;;;;5065477;28;20070;-66
2022/06/24 01:49:00;;;;;;;16.52;8.10;;;27.10;94.90;;;;;;5065390;28;20029;-60
2022/06/24 01:51:28;;;;;;;14.13;6.40;;;27.10;94.90;;;;;;5065182;28;20311;-63
2022/06/24 01:53:55;;;;;;;17.58;5.85;;;27.00;94.90;;;;;;5065293;28;20196;-60
2022/06/24 01:56:21;;;;;;;14.27;5.28;;;27.00;94.70;;;;;;5065192;28;20080;-61
2022/06/24 01:58:48;;;;;;;11.57;5.43;;;27.00;95.00;;;;;;5065066;28;20309;-62
2022/06/24 02:01:15;;;;;;;10.45;5.35;;;27.00;95.20;;;;;;5064745;28;20048;-61
2022/06/24 02:03:42;;;;;;;12.05;4.82;;;27.00;95.20;;;;;;5064762;28;20055;-62
2022/06/24 02:06:10;;;;;;;11.32;4.25;;;26.90;95.00;;;;;;5064366;28;20035;-61
2022/06/24 02:08:38;;;;;;;10.57;3.63;;;26.90;95.10;;;;;;5063598;28;20059;-56
2022/06/24 02:13:51;;;;;;;11.95;2.95;;;26.90;94.90;;;;;;5062724;28;20205;-58
2022/06/24 02:16:20;;;;;;;9.45;2.80;;;27.00;94.80;;;;;;5064921;28;20009;-58
2022/06/24 02:18:47;;;;;;;8.82;2.75;;;27.00;94.80;;;;;;5064907;28;20027;-60
2022/06/24 02:21:14;;;;;;;10.05;2.80;;;27.00;94.90;;;;;;5064477;28;20124;-61
2022/06/24 02:23:42;;;;;;;10.73;2.45;;;27.00;94.90;;;;;;5064934;28;20021;-60
2022/06/24 02:26:09;;;;;;;8.43;2.50;;;27.00;94.90;;;;;;5062305;28;20197;-60
2022/06/24 02:28:36;;;;;;;8.00;2.45;;;27.00;94.90;;;;;;5064221;28;20078;-59
2022/06/24 02:31:03;;;;;;;10.13;3.00;;;27.00;94.80;;;;;;5064318;28;20028;-60
2022/06/24 02:33:30;;;;;;;9.82;2.75;;;26.90;94.80;;;;;;5064249;28;20012;-61
2022/06/24 02:35:57;;;;;;;10.50;2.80;;;26.90;94.80;;;;;;5063989;28;20076;-61
2022/06/24 02:38:24;;;;;;;9.30;2.90;;;26.90;94.90;;;;;;5064425;28;20189;-55
2022/06/24 02:40:52;;;;;;;11.30;2.90;;;26.90;94.70;;;;;;5063965;28;20009;-61
2022/06/24 02:43:26;;;;;;;6.88;2.40;;;26.90;94.70;;;;;;5063810;28;20028;-60
2022/06/24 02:46:05;;;;;;;10.23;2.30;;;26.90;94.80;;;;;;5061457;28;20023;-52
2022/06/24 02:48:34;;;;;;;14.23;2.50;;;26.90;94.80;;;;;;5061431;28;20088;-55
2022/06/24 02:51:03;;;;;;;11.38;7.32;;;26.90;94.80;;;;;;5063369;28;20305;-54
2022/06/24 02:53:32;;;;;;;16.00;8.98;;;26.90;94.80;;;;;;5063997;28;20032;-52
2022/06/24 02:56:03;;;;;;;16.83;11.80;;;26.90;94.80;;;;;;5063758;28;20037;-52
2022/06/24 02:58:31;;;;;;;16.73;12.00;;;26.90;94.90;;;;;;5064045;28;20024;-51
2022/06/24 03:00:58;;;;;;;22.27;17.92;;;26.90;94.60;;;;;;5063774;28;20049;-51
2022/06/24 03:03:25;;;;;;;21.50;11.65;;;26.90;94.60;;;;;;5064209;28;20032;-46
2022/06/24 03:05:52;;;;;;;11.13;7.97;;;27.00;94.60;;;;;;5063959;28;20375;-52
2022/06/24 03:08:21;;;;;;;15.18;7.20;;;26.90;94.60;;;;;;5064214;28;20066;-58
2022/06/24 03:10:49;;;;;;;15.95;6.22;;;27.00;94.60;;;;;;5064069;28;20029;-54
2022/06/24 03:13:16;;;;;;;15.98;5.70;;;27.00;94.60;;;;;;5064101;28;20261;-51
2022/06/24 03:15:45;;;;;;;11.90;4.93;;;27.00;94.60;;;;;;5064037;28;20063;-51
2022/06/24 03:18:15;;;;;;;11.68;4.65;;;27.00;94.70;;;;;;5064174;28;20343;-53
2022/06/24 03:20:42;;;;;;;12.05;4.40;;;26.90;94.80;;;;;;5063968;28;20029;-51
2022/06/24 03:23:08;;;;;;;11.15;4.05;;;27.00;94.80;;;;;;5064153;28;20025;-50
2022/06/24 03:25:35;;;;;;;15.18;3.97;;;27.00;94.80;;;;;;5064352;28;20197;-51
2022/06/24 03:28:04;;;;;;;10.35;3.70;;;27.00;94.90;;;;;;5064092;28;20025;-53
2022/06/24 03:30:35;;;;;;;10.45;3.72;;;27.00;95.00;;;;;;5063897;28;20393;-56
2022/06/24 03:33:02;;;;;;;10.55;3.78;;;27.00;95.00;;;;;;5063915;28;20028;-54
2022/06/24 03:35:28;;;;;;;8.77;2.85;;;27.00;94.90;;;;;;5063738;28;20196;-56
2022/06/24 03:37:55;;;;;;;7.65;2.80;;;27.00;94.80;;;;;;5063748;28;20022;-55
2022/06/24 03:40:22;;;;;;;12.10;2.97;;;27.00;94.90;;;;;;5063316;28;20021;-51
2022/06/24 03:42:48;;;;;;;6.25;2.60;;;26.90;94.90;;;;;;5063432;28;20020;-48
2022/06/24 03:45:15;;;;;;;8.07;2.75;;;26.90;94.80;;;;;;5060659;28;20033;-51
2022/06/24 03:47:41;;;;;;;9.60;3.22;;;26.90;94.70;;;;;;5063895;28;20075;-55
2022/06/24 03:50:09;;;;;;;10.57;2.92;;;27.00;94.80;;;;;;5063632;28;20032;-57
2022/06/24 03:52:35;;;;;;;12.02;2.75;;;26.90;94.60;;;;;;5063760;28;20017;-52
2022/06/24 03:55:02;;;;;;;9.75;2.70;;;26.90;94.70;;;;;;5063623;28;20028;-52
2022/06/24 03:57:29;;;;;;;9.70;2.90;;;26.90;94.70;;;;;;5063704;28;20023;-51
2022/06/24 03:59:56;;;;;;;12.40;2.67;;;26.90;94.60;;;;;;5063414;28;20056;-52
2022/06/24 04:02:23;;;;;;;9.93;2.50;;;26.90;94.60;;;;;;5065822;28;20017;-52
2022/06/24 04:04:50;;;;;;;8.07;2.38;;;26.90;94.60;;;;;;5067752;28;20025;-52
2022/06/24 04:07:16;;;;;;;7.93;2.75;;;26.90;94.70;;;;;;5067511;28;20088;-52
2022/06/24 04:09:43;;;;;;;9.57;3.05;;;26.90;94.70;;;;;;5067464;28;20020;-53
2022/06/24 04:12:10;;;;;;;12.05;2.58;;;26.90;94.80;;;;;;5067593;28;20009;-56
2022/06/24 04:17:22;;;;;;;10.75;2.90;;;26.90;94.70;;;;;;5067454;28;20066;-56
2022/06/24 04:19:50;;;;;;;10.48;2.95;;;26.90;94.70;;;;;;5067430;28;20084;-49
2022/06/24 04:22:17;;;;;;;7.35;2.30;;;26.90;94.80;;;;;;5067106;28;20036;-51
2022/06/24 04:24:43;;;;;;;8.68;2.60;;;26.90;94.90;;;;;;5067278;28;20021;-52
2022/06/24 04:27:10;;;;;;;15.80;2.50;;;26.90;94.90;;;;;;5067214;28;20321;-52
2022/06/24 04:29:36;;;;;;;15.20;2.80;;;26.90;94.90;;;;;;5067049;28;20025;-51
2022/06/24 04:32:03;;;;;;;8.63;2.35;;;26.90;95.00;;;;;;5067248;28;20023;-52
2022/06/24 04:34:30;;;;;;;10.25;2.40;;;26.90;95.00;;;;;;5067028;28;20020;-51
2022/06/24 04:36:56;;;;;;;8.30;2.28;;;26.80;94.90;;;;;;5066877;28;20013;-51
2022/06/24 04:39:23;;;;;;;8.80;2.25;;;26.90;95.00;;;;;;5067473;28;20025;-54
2022/06/24 04:41:49;;;;;;;9.02;2.47;;;26.80;94.90;;;;;;5067009;28;20337;-51
2022/06/24 04:44:16;;;;;;;11.32;2.33;;;26.80;94.80;;;;;;5067311;28;20205;-54
2022/06/24 04:46:42;;;;;;;9.75;2.22;;;26.90;94.90;;;;;;5066882;28;20029;-52
2022/06/24 04:49:09;;;;;;;8.63;2.50;;;26.80;94.90;;;;;;5067315;28;20032;-51
2022/06/24 04:51:35;;;;;;;14.50;2.15;;;26.80;94.90;;;;;;5066799;28;20088;-48
2022/06/24 04:54:02;;;;;;;10.70;2.50;;;26.80;94.90;;;;;;5066714;28;20025;-51
2022/06/24 04:56:28;;;;;;;7.85;1.90;;;26.80;94.90;;;;;;5066835;28;20305;-50
2022/06/24 04:58:55;;;;;;;8.38;2.90;;;26.80;94.80;;;;;;5067095;28;20089;-49
2022/06/24 05:01:22;;;;;;;8.38;2.20;;;26.80;94.70;;;;;;5066494;28;20083;-50
2022/06/24 05:03:48;;;;;;;11.43;3.13;;;26.80;94.70;;;;;;5067108;28;20071;-50
2022/06/24 05:06:15;;;;;;;10.65;2.65;;;26.80;94.60;;;;;;5066521;28;20029;-52
2022/06/24 05:08:43;;;;;;;13.90;2.70;;;26.80;94.60;;;;;;5066694;28;20032;-48
2022/06/24 05:11:10;;;;;;;12.23;2.40;;;26.80;94.50;;;;;;5066557;28;20043;-49
2022/06/24 05:13:36;;;;;;;10.32;2.47;;;26.80;94.70;;;;;;5066352;28;20328;-50
2022/06/24 05:16:03;;;;;;;13.65;3.47;;;26.80;94.70;;;;;;5065772;28;20027;-54
2022/06/24 05:18:30;;;;;;;10.80;3.60;;;26.80;94.80;;;;;;5066097;28;20025;-46
2022/06/24 05:20:56;;;;;;;10.85;3.50;;;26.80;94.70;;;;;;5065637;28;20025;-47
2022/06/24 05:23:23;;;;;;;10.95;3.60;;;26.80;94.70;;;;;;5066153;28;20070;-50
2022/06/24 05:25:49;;;;;;;13.05;3.47;;;26.80;94.70;;;;;;5066014;28;20032;-51
2022/06/24 05:28:16;;;;;;;13.65;3.60;;;26.80;94.70;;;;;;5066449;28;20029;-52
2022/06/24 05:30:42;;;;;;;10.75;3.80;;;26.80;94.80;;;;;;5065843;28;20031;-49
2022/06/24 05:33:09;;;;;;;12.13;3.70;;;26.70;94.90;;;;;;5066184;28;20029;-45
2022/06/24 05:35:36;;;;;;;9.43;3.45;;;26.80;95.00;;;;;;5065702;28;20031;-52
2022/06/24 05:38:03;;;;;;;12.65;3.33;;;26.80;95.10;;;;;;5065919;28;20025;-51
2022/06/24 05:40:29;;;;;;;8.27;2.75;;;26.80;95.20;;;;;;5065747;28;20032;-53
2022/06/24 05:42:56;;;;;;;9.65;2.50;;;26.80;95.30;;;;;;5065859;28;20096;-46
2022/06/24 05:45:22;;;;;;;11.02;3.58;;;26.70;95.40;;;;;;5065471;28;20032;-52
2022/06/24 05:47:49;;;;;;;6.90;3.15;;;26.70;95.50;;;;;;5065777;28;20025;-52
2022/06/24 05:50:15;;;;;;;8.88;3.03;;;26.70;95.40;;;;;;5065526;28;20025;-53
2022/06/24 05:55:26;;;;;;;6.93;2.15;;;26.70;95.60;;;;;;5065538;28;20024;-54
2022/06/24 05:57:53;;;;;;;5.40;2.40;;;26.70;95.70;;;;;;5065475;28;20092;-50
2022/06/24 06:00:20;;;;;;;8.85;3.30;;;26.70;95.70;;;;;;5065364;28;20052;-54
2022/06/24 06:02:46;;;;;;;7.85;2.90;;;26.70;95.80;;;;;;5065437;28;20040;-53
2022/06/24 06:05:13;;;;;;;8.88;2.47;;;26.70;95.80;;;;;;5065259;28;20092;-54
2022/06/24 06:07:40;;;;;;;4.43;2.40;;;26.70;95.80;;;;;;5065412;28;20028;-53
2022/06/24 06:10:07;;;;;;;4.72;2.20;;;26.70;95.70;;;;;;5065871;28;20031;-53
2022/06/24 06:12:36;;;;;;;7.32;2.08;;;26.70;95.80;;;;;;5065075;28;20020;-52
2022/06/24 06:15:03;;;;;;;3.90;1.88;;;26.70;95.40;;;;;;5065010;28;20025;-51
2022/06/24 06:17:30;;;;;;;6.22;2.00;;;26.60;95.10;;;;;;5065105;28;20166;-45
2022/06/24 06:19:56;;;;;;;4.22;1.60;;;26.60;95.10;;;;;;5064929;28;20017;-51
2022/06/24 06:22:23;;;;;;;6.50;2.10;;;26.60;95.00;;;;;;5065186;28;20021;-46
2022/06/24 06:24:49;;;;;;;3.83;1.77;;;26.60;95.00;;;;;;5064547;28;20306;-53
2022/06/24 06:27:16;;;;;;;3.35;1.75;;;26.60;95.10;;;;;;5064989;28;20354;-53
2022/06/24 06:29:42;;;;;;;6.05;1.90;;;26.60;95.10;;;;;;5065323;28;20025;-53
2022/06/24 06:32:09;;;;;;;3.95;1.90;;;26.60;95.00;;;;;;5064877;28;20017;-52
2022/06/24 06:34:36;;;;;;;5.15;1.85;;;26.60;95.20;;;;;;5065134;28;20246;-52
2022/06/24 06:37:02;;;;;;;4.03;1.80;;;26.60;95.00;;;;;;5064677;28;20059;-52
2022/06/24 06:39:29;;;;;;;3.05;1.60;;;26.50;94.90;;;;;;5064919;28;20078;-52
2022/06/24 06:41:55;;;;;;;4.70;1.58;;;26.50;94.90;;;;;;5064755;28;20013;-52
2022/06/24 06:44:22;;;;;;;5.70;2.03;;;26.50;94.90;;;;;;5065431;28;20035;-55
2022/06/24 06:46:50;;;;;;;4.85;1.95;;;26.50;94.90;;;;;;5064713;28;20063;-53
2022/06/24 06:49:16;;;;;;;4.13;2.30;;;26.50;94.90;;;;;;5065328;28;20071;-55
2022/06/24 06:51:43;;;;;;;5.55;2.05;;;26.50;94.90;;;;;;5064534;28;20043;-53
2022/06/24 06:54:11;;;;;;;4.63;2.20;;;26.40;94.80;;;;;;5065097;28;20028;-55
2022/06/24 06:56:37;;;;;;;4.15;1.70;;;26.40;94.70;;;;;;5064973;28;20102;-47
2022/06/24 06:59:04;;;;;;;8.32;2.20;;;26.40;94.70;;;;;;5064774;28;20017;-46
2022/06/24 07:01:30;;;;;;;3.88;1.90;;;26.40;94.80;;;;;;5064455;28;20049;-54
2022/06/24 07:03:57;;;;;;;4.47;2.08;;;26.40;94.80;;;;;;5064816;28;20084;-48
2022/06/24 07:06:24;;;;;;;5.40;1.67;;;26.40;94.90;;;;;;5064249;28;20029;-53
2022/06/24 07:08:51;;;;;;;6.15;2.00;;;26.30;94.70;;;;;;5064732;28;20029;-51
2022/06/24 07:11:18;;;;;;;6.88;2.03;;;26.40;94.90;;;;;;5064422;28;20031;-56
2022/06/24 07:13:45;;;;;;;7.20;2.33;;;26.30;94.70;;;;;;5064472;28;20092;-53
2022/06/24 07:16:11;;;;;;;5.13;1.90;;;26.30;94.70;;;;;;5064273;28;20025;-53
2022/06/24 07:18:38;;;;;;;4.60;1.65;;;26.30;94.80;;;;;;5064739;28;20021;-52
2022/06/24 07:21:05;;;;;;;4.68;2.05;;;26.30;94.80;;;;;;5063935;28;20025;-52
2022/06/24 07:23:31;;;;;;;4.78;1.75;;;26.30;94.80;;;;;;5064280;28;20047;-51
2022/06/24 07:25:58;;;;;;;2.90;1.50;;;26.30;94.90;;;;;;5064104;28;20035;-58
2022/06/24 07:28:25;;;;;;;4.72;1.90;;;26.30;94.90;;;;;;5064479;28;20025;-52
2022/06/24 07:30:52;;;;;;;4.43;1.67;;;26.20;94.80;;;;;;5064053;28;20033;-52
2022/06/24 07:33:19;;;;;;;3.97;1.70;;;26.20;94.80;;;;;;5064392;28;20224;-52
2022/06/24 07:35:46;;;;;;;4.40;1.63;;;26.20;94.80;;;;;;5063677;28;20021;-49
2022/06/24 07:38:12;;;;;;;3.33;1.45;;;26.20;94.90;;;;;;5064202;28;20100;-52
2022/06/24 07:40:39;;;;;;;4.18;1.50;;;26.20;94.90;;;;;;5063894;28;20074;-52
2022/06/24 07:43:05;;;;;;;5.13;1.40;;;26.20;95.00;;;;;;5064401;28;20032;-46
2022/06/24 07:45:32;;;;;;;3.63;1.33;;;26.20;95.20;;;;;;5063823;28;20040;-48
2022/06/24 07:47:59;;;;;;;6.38;1.50;;;26.20;94.80;;;;;;5064025;28;20021;-50
2022/06/24 07:50:25;;;;;;;6.47;1.60;;;26.20;94.90;;;;;;5063599;28;20240;-52
2022/06/24 07:52:52;;;;;;;3.63;1.10;;;26.20;94.90;;;;;;5063710;28;20059;-50
2022/06/24 07:58:04;;;;;;;2.45;1.10;;;26.10;94.90;;;;;;5063774;28;20019;-52
2022/06/24 08:00:30;;;;;;;4.35;1.17;;;26.20;95.00;;;;;;5063732;28;20320;-53
2022/06/24 08:02:57;;;;;;;2.28;0.90;;;26.20;95.00;;;;;;5063822;28;20025;-51
2022/06/24 08:05:23;;;;;;;4.22;1.00;;;26.20;95.00;;;;;;5063719;28;20049;-51
2022/06/24 08:07:50;;;;;;;3.28;0.98;;;26.20;95.00;;;;;;5063784;28;20083;-51
2022/06/24 08:10:16;;;;;;;4.68;0.80;;;26.20;95.00;;;;;;5063599;28;20028;-49
2022/06/24 08:12:43;;;;;;;3.15;0.95;;;26.20;94.90;;;;;;5063475;28;20025;-54
2022/06/24 08:15:10;;;;;;;6.10;0.95;;;26.20;95.00;;;;;;5063571;28;20032;-54
2022/06/24 08:17:36;;;;;;;5.05;1.00;;;26.20;94.90;;;;;;5063843;28;20297;-51
2022/06/24 08:20:03;;;;;;;3.55;1.10;;;26.10;94.90;;;;;;5063264;28;20025;-50
2022/06/24 08:22:30;;;;;;;2.55;1.00;;;26.10;94.90;;;;;;5063751;28;20300;-53
2022/06/24 08:24:56;;;;;;;3.28;0.90;;;26.10;94.90;;;;;;5063443;28;20036;-55
2022/06/24 08:27:23;;;;;;;3.50;1.00;;;26.10;94.90;;;;;;5064012;28;20096;-50
2022/06/24 08:29:49;;;;;;;2.60;0.80;;;26.10;94.90;;;;;;5063534;28;20248;-56
2022/06/24 08:32:16;;;;;;;2.20;0.90;;;26.10;95.00;;;;;;5063319;28;20013;-48
2022/06/24 08:34:42;;;;;;;2.15;0.70;;;26.10;94.90;;;;;;5063240;28;20217;-47
2022/06/24 08:37:09;;;;;;;1.55;0.75;;;26.10;94.90;;;;;;5063389;28;20013;-45
2022/06/24 08:39:36;;;;;;;3.90;0.95;;;26.10;95.00;;;;;;5063426;28;20024;-49
2022/06/24 08:42:04;;;;;;;1.70;0.77;;;26.10;95.00;;;;;;5063192;28;20304;-54
2022/06/24 08:44:34;;;;;;;1.52;0.80;;;26.10;95.10;;;;;;5063454;28;20060;-49
2022/06/24 08:47:00;;;;;;;4.50;0.90;;;26.10;95.10;;;;;;5063459;28;20017;-48
2022/06/24 08:49:28;;;;;;;1.60;0.90;;;26.10;95.10;;;;;;5067038;28;20025;-50
2022/06/24 08:51:57;;;;;;;5.18;1.10;;;26.10;95.00;;;;;;5067279;28;20017;-49
2022/06/24 08:54:30;;;;;;;2.65;0.95;;;26.10;94.90;;;;;;5067231;28;20217;-50
2022/06/24 08:56:58;;;;;;;1.70;0.68;;;26.10;95.00;;;;;;5066768;28;20021;-52
2022/06/24 08:59:27;;;;;;;4.00;0.95;;;26.10;95.00;;;;;;5067120;28;20025;-53
2022/06/24 09:01:53;;;;;;;2.88;0.90;;;26.10;95.00;;;;;;5066573;28;20036;-47
2022/06/24 09:04:23;;;;;;;3.00;1.10;;;26.10;95.00;;;;;;5067032;28;20055;-52
2022/06/24 09:06:50;;;;;;;3.25;1.00;;;26.10;94.80;;;;;;5066709;28;20060;-49
2022/06/24 09:09:24;;;;;;;2.83;0.98;;;26.00;94.70;;;;;;5067067;28;20105;-51
2022/06/24 09:12:00;;;;;;;4.30;0.90;;;26.00;94.70;;;;;;5066481;28;20321;-53
2022/06/24 09:14:50;;;;;;;4.32;0.93;;;26.00;94.70;;;;;;5066860;28;20087;-53
2022/06/24 09:17:16;;;;;;;2.92;0.77;;;26.00;94.80;;;;;;5066499;28;20225;-51
2022/06/24 09:19:43;;;;;;;2.33;0.50;;;26.00;94.70;;;;;;5066292;28;20316;-45
2022/06/24 09:22:10;;;;;;;2.25;0.80;;;26.00;94.80;;;;;;5066036;28;20055;-45
2022/06/24 09:24:47;;;;;;;4.90;1.00;;;26.00;94.70;;;;;;5066286;28;20336;-51
2022/06/24 09:27:14;;;;;;;2.20;1.00;;;26.00;94.80;;;;;;5066316;28;20305;-50
2022/06/24 09:29:50;;;;;;;2.33;1.10;;;26.00;94.70;;;;;;5066367;28;20027;-49
2022/06/24 09:32:17;;;;;;;3.08;1.20;;;25.90;94.70;;;;;;5066390;28;20213;-52
2022/06/24 09:35:07;;;;;;;3.17;1.30;;;26.00;94.80;;;;;;5065979;28;20190;-51
2022/06/24 09:37:42;;;;;;;5.00;2.38;;;25.90;94.90;;;;;;5066082;28;20021;-53
2022/06/24 09:40:18;;;;;;;2.97;1.70;;;25.90;94.90;;;;;;5065804;28;20289;-53
2022/06/24 09:43:01;;;;;;;6.95;2.75;;;25.90;94.90;;;;;;5066212;28;20025;-51
2022/06/24 09:45:49;;;;;;;4.40;2.70;;;26.00;95.00;;;;;;5065541;28;20029;-51
2022/06/24 09:48:30;;;;;;;7.25;2.67;;;25.90;95.00;;;;;;5066167;28;20070;-51
2022/06/24 09:50:59;;;;;;;4.70;2.70;;;25.90;95.00;;;;;;5065856;28;20029;-54
2022/06/24 09:53:26;;;;;;;6.93;2.65;;;25.90;95.10;;;;;;5065625;28;20021;-52
2022/06/24 09:55:54;;;;;;;6.18;2.25;;;25.90;95.10;;;;;;5065562;28;20021;-49
2022/06/24 09:58:21;;;;;;;4.95;2.70;;;25.90;95.10;;;;;;5065934;28;20367;-49
2022/06/24 10:00:49;;;;;;;4.95;2.80;;;25.90;95.10;;;;;;5065375;28;20045;-51
2022/06/24 10:03:16;;;;;;;3.63;2.85;;;25.90;95.10;;;;;;5065750;28;20025;-51
2022/06/24 10:05:49;;;;;;;5.10;2.20;;;25.90;95.10;;;;;;5065673;28;20080;-55
2022/06/24 10:08:21;;;;;;;4.95;1.77;;;25.90;95.20;;;;;;5065945;28;20032;-52
2022/06/24 10:10:55;;;;;;;4.13;1.50;;;25.90;95.10;;;;;;5065171;28;20040;-53
2022/06/24 10:13:29;;;;;;;4.88;1.55;;;25.90;95.00;;;;;;5065419;28;20193;-55
2022/06/24 10:15:57;;;;;;;5.20;1.65;;;25.90;95.00;;;;;;5065076;28;20017;-50
2022/06/24 10:18:29;;;;;;;8.15;1.83;;;25.90;95.10;;;;;;5065480;28;20104;-51
2022/06/24 10:20:57;;;;;;;;;;;25.90;95.00;;;;;;5065782;28;20025;-47
2022/06/24 10:24:05;;;;;;;4.38;1.50;;;25.90;95.00;;;;;;5065144;28;19919;-56
2022/06/24 10:26:34;;;;;;;4.65;1.48;;;25.90;95.00;;;;;;5063934;28;20033;-53
2022/06/24 10:29:04;;;;;;;4.30;1.98;;;25.80;95.00;;;;;;5065510;28;20028;-48
2022/06/24 10:31:49;;;;;;;5.20;1.60;;;25.80;95.00;;;;;;5064961;28;20021;-55
2022/06/24 10:34:30;;;;;;;6.50;1.50;;;25.80;95.10;;;;;;5065303;28;20327;-48
2022/06/24 10:37:05;;;;;;;7.43;1.70;;;25.80;95.00;;;;;;5064828;28;20066;-52
2022/06/24 10:39:34;;;;;;;3.33;1.20;;;25.90;95.00;;;;;;5064919;28;20283;-48
2022/06/24 10:42:13;;;;;;;7.38;1.60;;;25.80;95.00;;;;;;5064500;28;20021;-48
2022/06/24 10:44:58;;;;;;;5.68;1.65;;;25.80;95.00;;;;;;5064648;28;20147;-50
2022/06/24 10:47:30;;;;;;;5.05;1.00;;;25.80;95.00;;;;;;5064541;28;20029;-49
2022/06/24 10:50:02;;;;;;;3.92;1.10;;;25.80;95.20;;;;;;5064521;28;20382;-49
2022/06/24 10:52:56;;;;;;;4.40;1.35;;;25.80;95.10;;;;;;5064532;28;20025;-53
2022/06/24 10:55:28;;;;;;;3.08;1.10;;;25.80;95.10;;;;;;5065065;28;20083;-51
2022/06/24 10:58:03;;;;;;;6.35;1.00;;;25.80;95.10;;;;;;5064429;28;20017;-50
2022/06/24 11:00:39;;;;;;;4.03;0.93;;;25.80;95.00;;;;;;5064278;28;20064;-52
2022/06/24 11:03:06;;;;;;;4.22;1.30;;;25.80;95.00;;;;;;5064553;28;20021;-48
2022/06/24 11:05:44;;;;;;;5.50;1.30;;;25.80;95.20;;;;;;5064248;28;20076;-52
2022/06/24 11:08:13;;;;;;;10.68;1.38;;;25.80;95.20;;;;;;5064349;28;20071;-58
2022/06/24 11:10:41;;;;;;;13.02;1.55;;;25.80;95.40;;;;;;5063573;28;20047;-55
2022/06/24 11:13:09;;;;;;;6.60;1.60;;;25.70;95.40;;;;;;5064160;28;20071;-55
2022/06/24 11:15:49;;;;;;;3.28;1.60;;;25.70;95.50;;;;;;5063987;28;20250;-57
2022/06/24 11:18:35;;;;;;;5.28;1.50;;;25.70;95.60;;;;;;5064260;28;20017;-58
2022/06/24 11:21:04;;;;;;;8.77;1.65;;;25.70;95.50;;;;;;5064246;28;20336;-50
2022/06/24 11:23:33;;;;;;;8.13;1.70;;;25.70;95.60;;;;;;5064289;28;20025;-49
2022/06/24 11:26:09;;;;;;;6.95;1.40;;;25.70;95.60;;;;;;5063437;28;20059;-47
2022/06/24 11:28:39;;;;;;;2.38;1.30;;;25.70;95.50;;;;;;5064165;28;20021;-47
2022/06/24 11:31:16;;;;;;;4.65;1.33;;;25.70;95.50;;;;;;5063984;28;20029;-50
2022/06/24 11:33:44;;;;;;;3.63;1.20;;;25.70;95.50;;;;;;5064099;28;20288;-49
2022/06/24 11:36:12;;;;;;;5.53;1.33;;;25.70;95.60;;;;;;5063833;28;20025;-51
2022/06/24 11:38:56;;;;;;;4.25;1.35;;;25.70;95.60;;;;;;5062955;28;20028;-49
2022/06/24 11:41:27;;;;;;;5.55;1.58;;;25.70;95.60;;;;;;5062403;28;20099;-52
2022/06/24 11:43:54;;;;;;;4.43;1.48;;;25.70;95.60;;;;;;5062673;28;20028;-52
2022/06/24 11:46:21;;;;;;;6.78;1.42;;;25.70;95.60;;;;;;5062216;28;20090;-50
2022/06/24 11:48:48;;;;;;;3.75;1.45;;;25.80;95.60;;;;;;5062658;28;20024;-50
2022/06/24 11:51:23;;;;;;;3.85;1.35;;;25.70;95.60;;;;;;5062162;28;20036;-50
2022/06/24 11:54:00;;;;;;;2.65;1.60;;;25.80;95.70;;;;;;5063251;28;20028;-48
2022/06/24 11:56:35;;;;;;;5.28;1.52;;;25.80;95.70;;;;;;5063913;28;20047;-51
2022/06/24 11:59:04;;;;;;;6.68;1.85;;;25.70;95.70;;;;;;5063981;28;20013;-54
2022/06/24 12:01:32;;;;;;;8.60;1.83;;;25.70;95.70;;;;;;5063511;28;20060;-56
2022/06/24 12:04:00;;;;;;;3.60;1.88;;;25.80;95.80;;;;;;5064067;28;20033;-58
2022/06/24 12:06:28;;;;;;;5.45;1.60;;;25.80;95.80;;;;;;5063446;28;20033;-46
2022/06/24 12:08:57;;;;;;;5.03;1.60;;;25.80;95.80;;;;;;5095793;28;20096;-48
2022/06/24 12:11:24;;;;;;;3.80;1.60;;;25.80;95.80;;;;;;5063716;28;20028;-50
2022/06/24 12:14:04;;;;;;;4.00;1.63;;;25.80;95.80;;;;;;5063900;28;20088;-47
2022/06/24 12:16:58;;;;;;;3.75;1.30;;;25.80;95.80;;;;;;5063611;28;20025;-57
2022/06/24 12:19:26;;;;;;;4.78;1.20;;;25.80;95.80;;;;;;5064173;28;20234;-53
2022/06/24 12:22:03;;;;;;;3.40;1.20;;;25.80;95.80;;;;;;5063610;28;20029;-50
2022/06/24 12:24:29;;;;;;;5.85;2.70;;;25.80;95.80;;;;;;5067432;28;20044;-47
2022/06/24 12:26:57;;;;;;;4.13;2.40;;;25.80;95.90;;;;;;5067336;28;20020;-49
2022/06/24 12:29:27;;;;;;;2.58;1.33;;;25.80;95.90;;;;;;5068094;28;20021;-48
2022/06/24 12:31:54;;;;;;;4.90;1.55;;;25.80;95.80;;;;;;5067229;28;20221;-48
2022/06/24 12:34:38;;;;;;;9.93;2.03;;;25.80;95.80;;;;;;5067732;28;20037;-48
2022/06/24 12:37:07;;;;;;;3.28;1.52;;;25.80;95.80;;;;;;5067115;28;20020;-56
2022/06/24 12:39:34;;;;;;;3.45;1.75;;;25.80;95.90;;;;;;5067580;28;20017;-47
2022/06/24 12:42:02;;;;;;;5.07;2.10;;;25.80;95.90;;;;;;5067021;28;20020;-53
2022/06/24 12:44:44;;;;;;;3.20;1.75;;;25.80;96.00;;;;;;5067120;28;20033;-52
2022/06/24 12:52:47;;;;;;;5.85;1.60;;;25.80;96.20;;;;;;5067131;28;20024;-58
2022/06/24 12:55:18;;;;;;;5.47;1.45;;;25.90;96.30;;;;;;5067349;28;20331;-54
2022/06/24 12:57:45;;;;;;;6.22;1.80;;;25.80;96.30;;;;;;5067223;28;20025;-52
2022/06/24 13:00:15;;;;;;;5.28;1.88;;;25.90;96.30;;;;;;5066815;28;20040;-51
2022/06/24 13:02:47;;;;;;;4.75;1.95;;;25.80;96.30;;;;;;5067059;28;20029;-50
2022/06/24 13:05:14;;;;;;;;;;;25.80;96.30;;;;;;5067227;28;20021;-54
2022/06/24 13:07:41;;;;;;;3.28;2.20;;;25.90;96.30;;;;;;5066448;28;19917;-52
2022/06/24 13:10:10;;;;;;;5.57;1.80;;;25.90;96.40;;;;;;5066521;28;20032;-49